sensor_id;sensor_type;location;lat;lon;timestamp;P1;durP1;ratioP1;P2;durP2;ratioP2
50363;SDS011;36272;59.400;17.982;2023-03-07T00:03:27;23.30;;;4.35;;
50363;SDS011;36272;59.400;17.982;2023-03-07T00:08:29;14.35;;;4.20;;
50363;SDS011;36272;59.400;17.982;2023-03-07T00:13:31;23.92;;;4.63;;
50363;SDS011;36272;59.400;17.982;2023-03-07T00:18:34;23.80;;;4.68;;
50363;SDS011;36272;59.400;17.982;2023-03-07T00:23:37;28.17;;;4.72;;
50363;SDS011;36272;59.400;17.982;2023-03-07T00:28:40;20.95;;;4.32;;
50363;SDS011;36272;59.400;17.982;2023-03-07T00:33:42;23.10;;;4.78;;
50363;SDS011;36272;59.400;17.982;2023-03-07T00:38:44;22.85;;;4.60;;
50363;SDS011;36272;59.400;17.982;2023-03-07T00:43:46;28.45;;;6.05;;
50363;SDS011;36272;59.400;17.982;2023-03-07T00:48:48;23.67;;;7.35;;
50363;SDS011;36272;59.400;17.982;2023-03-07T00:53:50;37.60;;;9.88;;
50363;SDS011;36272;59.400;17.982;2023-03-07T00:58:52;29.85;;;7.63;;
50363;SDS011;36272;59.400;17.982;2023-03-07T01:03:53;29.05;;;7.80;;
50363;SDS011;36272;59.400;17.982;2023-03-07T01:09:00;34.78;;;8.18;;
50363;SDS011;36272;59.400;17.982;2023-03-07T01:14:08;37.42;;;9.52;;
50363;SDS011;36272;59.400;17.982;2023-03-07T01:19:11;23.85;;;7.82;;
50363;SDS011;36272;59.400;17.982;2023-03-07T01:24:13;17.55;;;6.65;;
50363;SDS011;36272;59.400;17.982;2023-03-07T01:29:16;21.55;;;7.85;;
50363;SDS011;36272;59.400;17.982;2023-03-07T01:34:17;19.88;;;7.15;;
50363;SDS011;36272;59.400;17.982;2023-03-07T01:39:19;21.90;;;6.47;;
50363;SDS011;36272;59.400;17.982;2023-03-07T01:44:22;20.17;;;6.13;;
50363;SDS011;36272;59.400;17.982;2023-03-07T01:54:39;22.13;;;6.88;;
50363;SDS011;36272;59.400;17.982;2023-03-07T01:59:50;18.75;;;6.30;;
50363;SDS011;36272;59.400;17.982;2023-03-07T02:04:59;11.13;;;4.47;;
50363;SDS011;36272;59.400;17.982;2023-03-07T02:10:04;17.45;;;5.40;;
50363;SDS011;36272;59.400;17.982;2023-03-07T02:15:10;18.90;;;5.75;;
50363;SDS011;36272;59.400;17.982;2023-03-07T02:20:23;27.10;;;6.30;;
50363;SDS011;36272;59.400;17.982;2023-03-07T02:25:50;20.25;;;5.40;;
50363;SDS011;36272;59.400;17.982;2023-03-07T02:31:04;32.08;;;5.03;;
50363;SDS011;36272;59.400;17.982;2023-03-07T02:41:17;33.13;;;6.25;;
50363;SDS011;36272;59.400;17.982;2023-03-07T02:46:21;19.17;;;5.80;;
50363;SDS011;36272;59.400;17.982;2023-03-07T02:51:22;18.55;;;5.35;;
50363;SDS011;36272;59.400;17.982;2023-03-07T02:56:24;12.18;;;4.75;;
50363;SDS011;36272;59.400;17.982;2023-03-07T03:01:26;21.17;;;5.55;;
50363;SDS011;36272;59.400;17.982;2023-03-07T03:06:27;12.43;;;4.70;;
50363;SDS011;36272;59.400;17.982;2023-03-07T03:11:29;21.98;;;6.00;;
50363;SDS011;36272;59.400;17.982;2023-03-07T03:16:31;18.00;;;5.60;;
50363;SDS011;36272;59.400;17.982;2023-03-07T03:21:32;17.02;;;5.28;;
50363;SDS011;36272;59.400;17.982;2023-03-07T03:26:34;15.57;;;5.88;;
50363;SDS011;36272;59.400;17.982;2023-03-07T03:31:36;33.40;;;6.13;;
50363;SDS011;36272;59.400;17.982;2023-03-07T03:36:38;17.08;;;5.53;;
50363;SDS011;36272;59.400;17.982;2023-03-07T03:41:40;13.38;;;5.40;;
50363;SDS011;36272;59.400;17.982;2023-03-07T03:46:42;13.65;;;5.50;;
50363;SDS011;36272;59.400;17.982;2023-03-07T03:51:43;11.00;;;5.03;;
50363;SDS011;36272;59.400;17.982;2023-03-07T03:56:45;20.77;;;5.75;;
50363;SDS011;36272;59.400;17.982;2023-03-07T04:01:47;9.70;;;4.55;;
50363;SDS011;36272;59.400;17.982;2023-03-07T04:06:49;11.18;;;4.05;;
50363;SDS011;36272;59.400;17.982;2023-03-07T04:11:51;15.05;;;4.75;;
50363;SDS011;36272;59.400;17.982;2023-03-07T04:16:52;10.85;;;4.43;;
50363;SDS011;36272;59.400;17.982;2023-03-07T04:21:54;17.15;;;4.53;;
50363;SDS011;36272;59.400;17.982;2023-03-07T04:26:56;9.18;;;4.40;;
50363;SDS011;36272;59.400;17.982;2023-03-07T04:31:57;10.35;;;4.22;;
50363;SDS011;36272;59.400;17.982;2023-03-07T04:36:59;11.07;;;4.72;;
50363;SDS011;36272;59.400;17.982;2023-03-07T04:42:01;11.75;;;4.68;;
50363;SDS011;36272;59.400;17.982;2023-03-07T04:47:02;12.95;;;5.10;;
50363;SDS011;36272;59.400;17.982;2023-03-07T04:52:04;14.05;;;5.38;;
50363;SDS011;36272;59.400;17.982;2023-03-07T04:57:06;14.73;;;4.78;;
50363;SDS011;36272;59.400;17.982;2023-03-07T05:02:10;19.25;;;5.35;;
50363;SDS011;36272;59.400;17.982;2023-03-07T05:07:13;15.50;;;5.50;;
50363;SDS011;36272;59.400;17.982;2023-03-07T05:12:15;15.10;;;5.13;;
50363;SDS011;36272;59.400;17.982;2023-03-07T05:17:18;12.15;;;4.85;;
50363;SDS011;36272;59.400;17.982;2023-03-07T05:22:20;14.65;;;5.25;;
50363;SDS011;36272;59.400;17.982;2023-03-07T05:27:21;12.63;;;4.72;;
50363;SDS011;36272;59.400;17.982;2023-03-07T05:32:23;12.77;;;5.00;;
50363;SDS011;36272;59.400;17.982;2023-03-07T05:37:25;12.50;;;5.07;;
50363;SDS011;36272;59.400;17.982;2023-03-07T05:42:27;12.48;;;5.05;;
50363;SDS011;36272;59.400;17.982;2023-03-07T05:47:28;19.30;;;5.30;;
50363;SDS011;36272;59.400;17.982;2023-03-07T05:52:30;11.30;;;5.03;;
50363;SDS011;36272;59.400;17.982;2023-03-07T05:57:32;13.15;;;5.05;;
50363;SDS011;36272;59.400;17.982;2023-03-07T06:02:34;14.30;;;5.47;;
50363;SDS011;36272;59.400;17.982;2023-03-07T06:07:35;17.65;;;5.18;;
50363;SDS011;36272;59.400;17.982;2023-03-07T06:12:37;22.55;;;5.10;;
50363;SDS011;36272;59.400;17.982;2023-03-07T06:17:39;14.55;;;5.00;;
50363;SDS011;36272;59.400;17.982;2023-03-07T06:22:40;12.43;;;5.07;;
50363;SDS011;36272;59.400;17.982;2023-03-07T06:27:42;11.40;;;5.22;;
50363;SDS011;36272;59.400;17.982;2023-03-07T06:32:43;20.67;;;4.88;;
50363;SDS011;36272;59.400;17.982;2023-03-07T06:37:45;15.93;;;4.72;;
50363;SDS011;36272;59.400;17.982;2023-03-07T06:42:47;11.13;;;5.07;;
50363;SDS011;36272;59.400;17.982;2023-03-07T06:47:48;19.25;;;5.22;;
50363;SDS011;36272;59.400;17.982;2023-03-07T06:52:50;14.50;;;5.32;;
50363;SDS011;36272;59.400;17.982;2023-03-07T06:57:52;13.95;;;5.60;;
50363;SDS011;36272;59.400;17.982;2023-03-07T07:02:53;19.20;;;5.53;;
50363;SDS011;36272;59.400;17.982;2023-03-07T07:07:55;17.20;;;5.90;;
50363;SDS011;36272;59.400;17.982;2023-03-07T07:12:56;11.70;;;5.50;;
50363;SDS011;36272;59.400;17.982;2023-03-07T07:17:58;21.23;;;6.43;;
50363;SDS011;36272;59.400;17.982;2023-03-07T07:23:00;16.75;;;5.20;;
50363;SDS011;36272;59.400;17.982;2023-03-07T07:28:02;9.80;;;5.00;;
50363;SDS011;36272;59.400;17.982;2023-03-07T07:33:04;20.60;;;5.50;;
50363;SDS011;36272;59.400;17.982;2023-03-07T07:38:06;10.52;;;5.07;;
50363;SDS011;36272;59.400;17.982;2023-03-07T07:43:11;17.83;;;4.65;;
50363;SDS011;36272;59.400;17.982;2023-03-07T07:48:15;15.32;;;5.32;;
50363;SDS011;36272;59.400;17.982;2023-03-07T07:53:17;8.57;;;3.92;;
50363;SDS011;36272;59.400;17.982;2023-03-07T07:58:19;11.13;;;4.65;;
50363;SDS011;36272;59.400;17.982;2023-03-07T08:03:20;13.95;;;3.95;;
50363;SDS011;36272;59.400;17.982;2023-03-07T08:08:22;7.68;;;4.75;;
50363;SDS011;36272;59.400;17.982;2023-03-07T08:13:24;7.75;;;3.72;;
50363;SDS011;36272;59.400;17.982;2023-03-07T08:18:25;7.85;;;3.63;;
50363;SDS011;36272;59.400;17.982;2023-03-07T08:23:27;6.50;;;3.10;;
50363;SDS011;36272;59.400;17.982;2023-03-07T08:28:29;10.15;;;3.17;;
50363;SDS011;36272;59.400;17.982;2023-03-07T08:33:31;7.13;;;3.17;;
50363;SDS011;36272;59.400;17.982;2023-03-07T08:38:33;7.78;;;3.85;;
50363;SDS011;36272;59.400;17.982;2023-03-07T08:43:35;7.85;;;3.65;;
50363;SDS011;36272;59.400;17.982;2023-03-07T08:48:38;5.75;;;2.70;;
50363;SDS011;36272;59.400;17.982;2023-03-07T08:53:39;7.45;;;2.28;;
50363;SDS011;36272;59.400;17.982;2023-03-07T08:58:43;5.35;;;1.88;;
50363;SDS011;36272;59.400;17.982;2023-03-07T09:03:45;4.90;;;1.75;;
50363;SDS011;36272;59.400;17.982;2023-03-07T09:08:47;3.80;;;1.40;;
50363;SDS011;36272;59.400;17.982;2023-03-07T09:13:49;4.00;;;1.65;;
50363;SDS011;36272;59.400;17.982;2023-03-07T09:18:51;2.00;;;1.30;;
50363;SDS011;36272;59.400;17.982;2023-03-07T09:23:52;4.30;;;1.27;;
50363;SDS011;36272;59.400;17.982;2023-03-07T09:28:54;3.90;;;1.30;;
50363;SDS011;36272;59.400;17.982;2023-03-07T09:38:57;3.13;;;0.90;;
50363;SDS011;36272;59.400;17.982;2023-03-07T09:49:36;1.45;;;0.90;;
50363;SDS011;36272;59.400;17.982;2023-03-07T09:54:50;1.35;;;0.55;;
50363;SDS011;36272;59.400;17.982;2023-03-07T10:00:04;2.65;;;0.80;;
50363;SDS011;36272;59.400;17.982;2023-03-07T10:05:30;1.52;;;0.70;;
50363;SDS011;36272;59.400;17.982;2023-03-07T10:27:05;2.35;;;0.70;;
50363;SDS011;36272;59.400;17.982;2023-03-07T10:32:17;3.75;;;0.77;;
50363;SDS011;36272;59.400;17.982;2023-03-07T10:42:53;0.88;;;0.60;;
50363;SDS011;36272;59.400;17.982;2023-03-07T10:47:57;6.63;;;0.82;;
50363;SDS011;36272;59.400;17.982;2023-03-07T10:53:29;1.33;;;0.60;;
50363;SDS011;36272;59.400;17.982;2023-03-07T10:58:35;2.80;;;0.50;;
50363;SDS011;36272;59.400;17.982;2023-03-07T11:03:49;2.47;;;0.60;;
50363;SDS011;36272;59.400;17.982;2023-03-07T11:08:55;2.28;;;0.30;;
50363;SDS011;36272;59.400;17.982;2023-03-07T11:14:05;2.08;;;0.52;;
50363;SDS011;36272;59.400;17.982;2023-03-07T11:19:57;37.33;;;3.13;;
50363;SDS011;36272;59.400;17.982;2023-03-07T11:25:00;1.77;;;0.57;;
50363;SDS011;36272;59.400;17.982;2023-03-07T11:30:16;2.00;;;0.63;;
50363;SDS011;36272;59.400;17.982;2023-03-07T11:35:21;2.13;;;0.65;;
50363;SDS011;36272;59.400;17.982;2023-03-07T11:40:32;1.05;;;0.73;;
50363;SDS011;36272;59.400;17.982;2023-03-07T11:46:00;1.47;;;0.67;;
50363;SDS011;36272;59.400;17.982;2023-03-07T11:56:43;1.38;;;0.40;;
50363;SDS011;36272;59.400;17.982;2023-03-07T12:01:52;1.95;;;0.30;;
50363;SDS011;36272;59.400;17.982;2023-03-07T12:12:17;2.15;;;0.68;;
50363;SDS011;36272;59.400;17.982;2023-03-07T12:39:29;1.88;;;0.95;;
50363;SDS011;36272;59.400;17.982;2023-03-07T12:44:32;2.80;;;0.52;;
50363;SDS011;36272;59.400;17.982;2023-03-07T12:55:47;2.20;;;0.77;;
50363;SDS011;36272;59.400;17.982;2023-03-07T13:01:01;1.75;;;0.60;;
50363;SDS011;36272;59.400;17.982;2023-03-07T13:06:05;1.45;;;0.73;;
50363;SDS011;36272;59.400;17.982;2023-03-07T13:11:20;1.55;;;0.57;;
50363;SDS011;36272;59.400;17.982;2023-03-07T13:21:33;3.08;;;0.55;;
50363;SDS011;36272;59.400;17.982;2023-03-07T13:26:35;5.47;;;1.10;;
50363;SDS011;36272;59.400;17.982;2023-03-07T13:31:38;7.22;;;1.00;;
50363;SDS011;36272;59.400;17.982;2023-03-07T13:36:40;1.95;;;0.50;;
50363;SDS011;36272;59.400;17.982;2023-03-07T13:41:43;3.13;;;0.90;;
50363;SDS011;36272;59.400;17.982;2023-03-07T13:46:49;1.52;;;0.65;;
50363;SDS011;36272;59.400;17.982;2023-03-07T13:57:35;2.47;;;0.65;;
50363;SDS011;36272;59.400;17.982;2023-03-07T14:02:39;3.22;;;0.68;;
50363;SDS011;36272;59.400;17.982;2023-03-07T14:07:42;3.45;;;0.95;;
50363;SDS011;36272;59.400;17.982;2023-03-07T14:29:01;1.73;;;0.73;;
50363;SDS011;36272;59.400;17.982;2023-03-07T14:50:17;2.15;;;1.17;;
50363;SDS011;36272;59.400;17.982;2023-03-07T14:55:20;1.80;;;1.20;;
50363;SDS011;36272;59.400;17.982;2023-03-07T15:00:25;1.20;;;0.77;;
50363;SDS011;36272;59.400;17.982;2023-03-07T15:05:30;3.33;;;0.70;;
50363;SDS011;36272;59.400;17.982;2023-03-07T15:10:36;2.80;;;1.20;;
50363;SDS011;36272;59.400;17.982;2023-03-07T15:15:42;1.90;;;0.85;;
50363;SDS011;36272;59.400;17.982;2023-03-07T15:20:47;3.72;;;0.93;;
50363;SDS011;36272;59.400;17.982;2023-03-07T15:25:51;0.88;;;0.82;;
50363;SDS011;36272;59.400;17.982;2023-03-07T15:30:57;6.40;;;2.03;;
50363;SDS011;36272;59.400;17.982;2023-03-07T15:41:29;4.03;;;1.30;;
50363;SDS011;36272;59.400;17.982;2023-03-07T15:46:37;5.30;;;1.85;;
50363;SDS011;36272;59.400;17.982;2023-03-07T15:51:49;6.45;;;1.63;;
50363;SDS011;36272;59.400;17.982;2023-03-07T15:56:55;2.58;;;1.15;;
50363;SDS011;36272;59.400;17.982;2023-03-07T16:07:31;4.10;;;1.60;;
50363;SDS011;36272;59.400;17.982;2023-03-07T16:12:33;6.63;;;1.83;;
50363;SDS011;36272;59.400;17.982;2023-03-07T16:17:36;2.88;;;1.50;;
50363;SDS011;36272;59.400;17.982;2023-03-07T16:22:38;4.32;;;2.05;;
50363;SDS011;36272;59.400;17.982;2023-03-07T16:27:40;4.68;;;1.73;;
50363;SDS011;36272;59.400;17.982;2023-03-07T16:32:45;6.25;;;1.90;;
50363;SDS011;36272;59.400;17.982;2023-03-07T16:37:47;3.85;;;1.67;;
50363;SDS011;36272;59.400;17.982;2023-03-07T16:42:49;6.57;;;1.60;;
50363;SDS011;36272;59.400;17.982;2023-03-07T16:47:51;6.47;;;1.63;;
50363;SDS011;36272;59.400;17.982;2023-03-07T16:52:58;5.07;;;1.90;;
50363;SDS011;36272;59.400;17.982;2023-03-07T16:58:01;5.10;;;2.22;;
50363;SDS011;36272;59.400;17.982;2023-03-07T17:03:07;4.97;;;1.95;;
50363;SDS011;36272;59.400;17.982;2023-03-07T17:08:09;2.63;;;1.52;;
50363;SDS011;36272;59.400;17.982;2023-03-07T17:13:12;5.25;;;1.77;;
50363;SDS011;36272;59.400;17.982;2023-03-07T17:18:17;5.10;;;2.00;;
50363;SDS011;36272;59.400;17.982;2023-03-07T17:23:19;5.32;;;2.40;;
50363;SDS011;36272;59.400;17.982;2023-03-07T17:28:22;7.07;;;2.10;;
50363;SDS011;36272;59.400;17.982;2023-03-07T17:33:25;5.30;;;2.30;;
50363;SDS011;36272;59.400;17.982;2023-03-07T17:38:26;4.28;;;1.30;;
50363;SDS011;36272;59.400;17.982;2023-03-07T17:43:28;3.40;;;1.40;;
50363;SDS011;36272;59.400;17.982;2023-03-07T17:48:30;4.50;;;1.50;;
50363;SDS011;36272;59.400;17.982;2023-03-07T17:53:33;4.00;;;1.77;;
50363;SDS011;36272;59.400;17.982;2023-03-07T17:58:35;3.33;;;1.65;;
50363;SDS011;36272;59.400;17.982;2023-03-07T18:03:43;4.55;;;2.03;;
50363;SDS011;36272;59.400;17.982;2023-03-07T18:08:44;5.85;;;2.25;;
50363;SDS011;36272;59.400;17.982;2023-03-07T18:13:46;4.78;;;1.50;;
50363;SDS011;36272;59.400;17.982;2023-03-07T18:18:48;4.53;;;1.73;;
50363;SDS011;36272;59.400;17.982;2023-03-07T18:23:50;6.45;;;1.70;;
50363;SDS011;36272;59.400;17.982;2023-03-07T18:28:54;5.68;;;2.28;;
50363;SDS011;36272;59.400;17.982;2023-03-07T18:33:56;3.85;;;2.10;;
50363;SDS011;36272;59.400;17.982;2023-03-07T18:38:58;3.47;;;2.17;;
50363;SDS011;36272;59.400;17.982;2023-03-07T18:44:02;6.35;;;2.65;;
50363;SDS011;36272;59.400;17.982;2023-03-07T18:49:04;3.58;;;2.13;;
50363;SDS011;36272;59.400;17.982;2023-03-07T18:54:05;3.97;;;2.10;;
50363;SDS011;36272;59.400;17.982;2023-03-07T18:59:09;6.05;;;2.33;;
50363;SDS011;36272;59.400;17.982;2023-03-07T19:04:10;6.85;;;2.80;;
50363;SDS011;36272;59.400;17.982;2023-03-07T19:09:13;6.28;;;2.97;;
50363;SDS011;36272;59.400;17.982;2023-03-07T19:14:17;5.95;;;2.90;;
50363;SDS011;36272;59.400;17.982;2023-03-07T19:19:19;6.22;;;3.13;;
50363;SDS011;36272;59.400;17.982;2023-03-07T19:24:20;6.70;;;3.47;;
50363;SDS011;36272;59.400;17.982;2023-03-07T19:29:22;12.70;;;3.92;;
50363;SDS011;36272;59.400;17.982;2023-03-07T19:34:23;9.13;;;4.22;;
50363;SDS011;36272;59.400;17.982;2023-03-07T19:39:25;13.73;;;4.20;;
50363;SDS011;36272;59.400;17.982;2023-03-07T19:44:27;13.73;;;4.68;;
50363;SDS011;36272;59.400;17.982;2023-03-07T19:49:29;16.58;;;4.90;;
50363;SDS011;36272;59.400;17.982;2023-03-07T19:54:30;12.88;;;4.95;;
50363;SDS011;36272;59.400;17.982;2023-03-07T19:59:32;13.45;;;5.30;;
50363;SDS011;36272;59.400;17.982;2023-03-07T20:04:33;14.98;;;6.03;;
50363;SDS011;36272;59.400;17.982;2023-03-07T20:09:35;14.65;;;5.85;;
50363;SDS011;36272;59.400;17.982;2023-03-07T20:14:37;14.10;;;6.50;;
50363;SDS011;36272;59.400;17.982;2023-03-07T20:19:42;14.00;;;6.65;;
50363;SDS011;36272;59.400;17.982;2023-03-07T20:24:44;9.90;;;5.13;;
50363;SDS011;36272;59.400;17.982;2023-03-07T20:29:50;17.45;;;6.22;;
50363;SDS011;36272;59.400;17.982;2023-03-07T20:34:52;17.25;;;7.53;;
50363;SDS011;36272;59.400;17.982;2023-03-07T20:39:53;15.75;;;6.55;;
50363;SDS011;36272;59.400;17.982;2023-03-07T20:44:55;12.70;;;6.40;;
50363;SDS011;36272;59.400;17.982;2023-03-07T20:49:59;16.33;;;5.70;;
50363;SDS011;36272;59.400;17.982;2023-03-07T20:55:01;18.30;;;6.40;;
50363;SDS011;36272;59.400;17.982;2023-03-07T21:00:03;16.48;;;6.03;;
50363;SDS011;36272;59.400;17.982;2023-03-07T21:05:05;15.57;;;5.53;;
50363;SDS011;36272;59.400;17.982;2023-03-07T21:10:07;13.48;;;6.50;;
50363;SDS011;36272;59.400;17.982;2023-03-07T21:15:09;16.52;;;6.03;;
50363;SDS011;36272;59.400;17.982;2023-03-07T21:20:14;20.00;;;6.80;;
50363;SDS011;36272;59.400;17.982;2023-03-07T21:25:16;11.38;;;6.00;;
50363;SDS011;36272;59.400;17.982;2023-03-07T21:30:18;15.48;;;7.03;;
50363;SDS011;36272;59.400;17.982;2023-03-07T21:35:19;14.73;;;6.57;;
50363;SDS011;36272;59.400;17.982;2023-03-07T21:40:21;15.25;;;7.28;;
50363;SDS011;36272;59.400;17.982;2023-03-07T21:45:26;15.02;;;6.85;;
50363;SDS011;36272;59.400;17.982;2023-03-07T21:50:27;20.33;;;7.30;;
50363;SDS011;36272;59.400;17.982;2023-03-07T21:55:35;19.17;;;7.45;;
50363;SDS011;36272;59.400;17.982;2023-03-07T22:00:37;17.83;;;6.90;;
50363;SDS011;36272;59.400;17.982;2023-03-07T22:05:38;20.83;;;7.68;;
50363;SDS011;36272;59.400;17.982;2023-03-07T22:10:41;17.83;;;7.53;;
50363;SDS011;36272;59.400;17.982;2023-03-07T22:15:42;18.52;;;7.43;;
50363;SDS011;36272;59.400;17.982;2023-03-07T22:20:44;13.25;;;6.55;;
50363;SDS011;36272;59.400;17.982;2023-03-07T22:25:46;18.80;;;7.45;;
50363;SDS011;36272;59.400;17.982;2023-03-07T22:30:48;21.02;;;7.90;;
50363;SDS011;36272;59.400;17.982;2023-03-07T22:35:56;14.23;;;7.15;;
50363;SDS011;36272;59.400;17.982;2023-03-07T22:41:00;22.17;;;7.72;;
50363;SDS011;36272;59.400;17.982;2023-03-07T22:46:19;17.60;;;7.75;;
50363;SDS011;36272;59.400;17.982;2023-03-07T22:51:21;14.35;;;7.60;;
50363;SDS011;36272;59.400;17.982;2023-03-07T22:56:25;15.25;;;7.75;;
50363;SDS011;36272;59.400;17.982;2023-03-07T23:01:27;13.57;;;7.95;;
50363;SDS011;36272;59.400;17.982;2023-03-07T23:06:30;19.48;;;7.80;;
50363;SDS011;36272;59.400;17.982;2023-03-07T23:11:33;13.35;;;7.40;;
50363;SDS011;36272;59.400;17.982;2023-03-07T23:16:36;16.10;;;6.97;;
50363;SDS011;36272;59.400;17.982;2023-03-07T23:21:39;14.43;;;7.70;;
50363;SDS011;36272;59.400;17.982;2023-03-07T23:26:41;12.25;;;7.10;;
50363;SDS011;36272;59.400;17.982;2023-03-07T23:31:43;17.95;;;7.18;;
50363;SDS011;36272;59.400;17.982;2023-03-07T23:36:44;13.55;;;7.38;;
50363;SDS011;36272;59.400;17.982;2023-03-07T23:41:46;15.30;;;8.02;;
50363;SDS011;36272;59.400;17.982;2023-03-07T23:46:48;13.30;;;6.03;;
50363;SDS011;36272;59.400;17.982;2023-03-07T23:51:50;13.73;;;6.30;;
50363;SDS011;36272;59.400;17.982;2023-03-07T23:56:51;10.75;;;6.15;;
